sensor_id;sensor_type;location;lat;lon;timestamp;temperature;humidity
16301;DHT22;8258;51.020;4.248;2022-10-26T00:01:34;13.10;99.90
16301;DHT22;8258;51.020;4.248;2022-10-26T00:04:01;13.10;99.90
16301;DHT22;8258;51.020;4.248;2022-10-26T00:06:28;13.10;99.90
16301;DHT22;8258;51.020;4.248;2022-10-26T00:08:55;13.10;99.90
16301;DHT22;8258;51.020;4.248;2022-10-26T00:11:23;13.10;99.90
16301;DHT22;8258;51.020;4.248;2022-10-26T00:13:50;13.10;99.90
16301;DHT22;8258;51.020;4.248;2022-10-26T00:16:19;13.00;99.90
16301;DHT22;8258;51.020;4.248;2022-10-26T00:18:47;13.00;99.90
16301;DHT22;8258;51.020;4.248;2022-10-26T00:21:15;13.00;99.90
16301;DHT22;8258;51.020;4.248;2022-10-26T00:23:42;13.00;99.90
16301;DHT22;8258;51.020;4.248;2022-10-26T00:26:09;12.90;99.90
16301;DHT22;8258;51.020;4.248;2022-10-26T00:28:37;13.00;99.90
16301;DHT22;8258;51.020;4.248;2022-10-26T00:31:05;13.00;99.90
16301;DHT22;8258;51.020;4.248;2022-10-26T00:33:32;12.90;99.90
16301;DHT22;8258;51.020;4.248;2022-10-26T00:36:00;13.00;99.90
16301;DHT22;8258;51.020;4.248;2022-10-26T00:38:28;13.00;99.90
16301;DHT22;8258;51.020;4.248;2022-10-26T00:40:54;13.00;99.90
16301;DHT22;8258;51.020;4.248;2022-10-26T00:43:37;13.00;99.90
16301;DHT22;8258;51.020;4.248;2022-10-26T00:46:09;13.00;99.90
16301;DHT22;8258;51.020;4.248;2022-10-26T00:48:40;13.00;99.90
16301;DHT22;8258;51.020;4.248;2022-10-26T00:51:14;13.00;99.90
16301;DHT22;8258;51.020;4.248;2022-10-26T00:53:43;13.10;99.90
16301;DHT22;8258;51.020;4.248;2022-10-26T00:56:10;13.10;99.90
16301;DHT22;8258;51.020;4.248;2022-10-26T00:58:38;13.10;99.90
16301;DHT22;8258;51.020;4.248;2022-10-26T01:01:05;13.10;99.90
16301;DHT22;8258;51.020;4.248;2022-10-26T01:03:33;13.10;99.90
16301;DHT22;8258;51.020;4.248;2022-10-26T01:06:02;13.10;99.90
16301;DHT22;8258;51.020;4.248;2022-10-26T01:08:32;13.10;99.90
16301;DHT22;8258;51.020;4.248;2022-10-26T01:11:00;13.10;99.90
16301;DHT22;8258;51.020;4.248;2022-10-26T01:13:29;13.10;99.90
16301;DHT22;8258;51.020;4.248;2022-10-26T01:16:05;13.10;99.90
16301;DHT22;8258;51.020;4.248;2022-10-26T01:18:39;13.10;99.90
16301;DHT22;8258;51.020;4.248;2022-10-26T01:24:31;13.00;99.90
16301;DHT22;8258;51.020;4.248;2022-10-26T01:27:14;13.00;99.90
16301;DHT22;8258;51.020;4.248;2022-10-26T01:33:17;13.00;99.90
16301;DHT22;8258;51.020;4.248;2022-10-26T01:35:51;13.00;99.90
16301;DHT22;8258;51.020;4.248;2022-10-26T01:38:28;13.00;99.90
16301;DHT22;8258;51.020;4.248;2022-10-26T01:40:59;13.00;99.90
16301;DHT22;8258;51.020;4.248;2022-10-26T01:43:32;13.00;99.90
16301;DHT22;8258;51.020;4.248;2022-10-26T01:46:01;13.00;99.90
16301;DHT22;8258;51.020;4.248;2022-10-26T01:48:31;13.00;99.90
16301;DHT22;8258;51.020;4.248;2022-10-26T01:51:00;13.00;99.90
16301;DHT22;8258;51.020;4.248;2022-10-26T01:53:29;13.00;99.90
16301;DHT22;8258;51.020;4.248;2022-10-26T01:55:57;13.00;99.90
16301;DHT22;8258;51.020;4.248;2022-10-26T01:58:52;13.00;99.90
16301;DHT22;8258;51.020;4.248;2022-10-26T02:01:46;13.00;99.90
16301;DHT22;8258;51.020;4.248;2022-10-26T02:04:27;13.00;99.90
16301;DHT22;8258;51.020;4.248;2022-10-26T02:07:02;13.10;99.90
16301;DHT22;8258;51.020;4.248;2022-10-26T02:09:36;13.10;99.90
16301;DHT22;8258;51.020;4.248;2022-10-26T02:12:10;13.10;99.90
16301;DHT22;8258;51.020;4.248;2022-10-26T02:14:45;13.10;99.90
16301;DHT22;8258;51.020;4.248;2022-10-26T02:17:19;13.10;99.90
16301;DHT22;8258;51.020;4.248;2022-10-26T02:19:52;13.10;99.90
16301;DHT22;8258;51.020;4.248;2022-10-26T02:22:24;13.00;99.90
16301;DHT22;8258;51.020;4.248;2022-10-26T02:24:53;13.10;99.90
16301;DHT22;8258;51.020;4.248;2022-10-26T02:27:25;13.10;99.90
16301;DHT22;8258;51.020;4.248;2022-10-26T02:29:54;13.10;99.90
16301;DHT22;8258;51.020;4.248;2022-10-26T02:32:23;13.10;99.90
16301;DHT22;8258;51.020;4.248;2022-10-26T02:34:55;13.10;99.90
16301;DHT22;8258;51.020;4.248;2022-10-26T02:37:24;13.00;99.90
16301;DHT22;8258;51.020;4.248;2022-10-26T02:39:53;13.10;99.90
16301;DHT22;8258;51.020;4.248;2022-10-26T02:42:22;13.10;99.90
16301;DHT22;8258;51.020;4.248;2022-10-26T02:44:52;13.10;99.90
16301;DHT22;8258;51.020;4.248;2022-10-26T02:47:23;13.10;99.90
16301;DHT22;8258;51.020;4.248;2022-10-26T02:49:52;13.10;99.90
16301;DHT22;8258;51.020;4.248;2022-10-26T02:52:23;13.10;99.90
16301;DHT22;8258;51.020;4.248;2022-10-26T02:54:58;13.20;99.90
16301;DHT22;8258;51.020;4.248;2022-10-26T02:57:30;13.10;99.90
16301;DHT22;8258;51.020;4.248;2022-10-26T02:59:59;13.10;99.90
16301;DHT22;8258;51.020;4.248;2022-10-26T03:02:27;13.10;99.90
16301;DHT22;8258;51.020;4.248;2022-10-26T03:04:56;13.10;99.90
16301;DHT22;8258;51.020;4.248;2022-10-26T03:07:31;13.10;99.90
16301;DHT22;8258;51.020;4.248;2022-10-26T03:09:58;13.20;99.90
16301;DHT22;8258;51.020;4.248;2022-10-26T03:12:25;13.30;99.90
16301;DHT22;8258;51.020;4.248;2022-10-26T03:14:52;13.30;99.90
16301;DHT22;8258;51.020;4.248;2022-10-26T03:17:19;13.30;99.90
16301;DHT22;8258;51.020;4.248;2022-10-26T03:19:46;13.30;99.90
16301;DHT22;8258;51.020;4.248;2022-10-26T03:22:14;13.20;99.90
16301;DHT22;8258;51.020;4.248;2022-10-26T03:24:41;13.20;99.90
16301;DHT22;8258;51.020;4.248;2022-10-26T03:27:08;13.20;99.90
16301;DHT22;8258;51.020;4.248;2022-10-26T03:29:34;13.20;99.90
16301;DHT22;8258;51.020;4.248;2022-10-26T03:32:01;13.20;99.90
16301;DHT22;8258;51.020;4.248;2022-10-26T03:34:28;13.20;99.90
16301;DHT22;8258;51.020;4.248;2022-10-26T03:36:55;13.30;99.90
16301;DHT22;8258;51.020;4.248;2022-10-26T03:39:23;13.30;99.90
16301;DHT22;8258;51.020;4.248;2022-10-26T03:41:50;13.20;99.90
16301;DHT22;8258;51.020;4.248;2022-10-26T03:44:17;13.20;99.90
16301;DHT22;8258;51.020;4.248;2022-10-26T03:46:44;13.30;99.90
16301;DHT22;8258;51.020;4.248;2022-10-26T03:49:11;13.30;99.90
16301;DHT22;8258;51.020;4.248;2022-10-26T03:51:37;13.30;99.90
16301;DHT22;8258;51.020;4.248;2022-10-26T03:54:05;13.30;99.90
16301;DHT22;8258;51.020;4.248;2022-10-26T03:56:33;13.30;99.90
16301;DHT22;8258;51.020;4.248;2022-10-26T03:59:00;13.30;99.90
16301;DHT22;8258;51.020;4.248;2022-10-26T04:01:27;13.30;99.90
16301;DHT22;8258;51.020;4.248;2022-10-26T04:03:53;13.30;99.90
16301;DHT22;8258;51.020;4.248;2022-10-26T04:06:20;13.30;99.90
16301;DHT22;8258;51.020;4.248;2022-10-26T04:08:47;13.30;99.90
16301;DHT22;8258;51.020;4.248;2022-10-26T04:11:14;13.30;99.90
16301;DHT22;8258;51.020;4.248;2022-10-26T04:13:42;13.20;99.90
16301;DHT22;8258;51.020;4.248;2022-10-26T04:16:09;13.20;99.90
16301;DHT22;8258;51.020;4.248;2022-10-26T04:18:36;13.20;99.90
16301;DHT22;8258;51.020;4.248;2022-10-26T04:21:03;13.20;99.90
16301;DHT22;8258;51.020;4.248;2022-10-26T04:23:30;13.20;99.90
16301;DHT22;8258;51.020;4.248;2022-10-26T04:25:57;13.20;99.90
16301;DHT22;8258;51.020;4.248;2022-10-26T04:28:24;13.10;99.90
16301;DHT22;8258;51.020;4.248;2022-10-26T04:30:52;13.20;99.90
16301;DHT22;8258;51.020;4.248;2022-10-26T04:33:19;13.20;99.90
16301;DHT22;8258;51.020;4.248;2022-10-26T04:35:46;13.20;99.90
16301;DHT22;8258;51.020;4.248;2022-10-26T04:38:13;13.20;99.90
16301;DHT22;8258;51.020;4.248;2022-10-26T04:40:40;13.40;99.90
16301;DHT22;8258;51.020;4.248;2022-10-26T04:43:07;13.40;99.90
16301;DHT22;8258;51.020;4.248;2022-10-26T04:45:33;13.50;99.90
16301;DHT22;8258;51.020;4.248;2022-10-26T04:48:04;13.50;99.90
16301;DHT22;8258;51.020;4.248;2022-10-26T04:50:31;13.50;99.90
16301;DHT22;8258;51.020;4.248;2022-10-26T04:52:58;13.60;99.90
16301;DHT22;8258;51.020;4.248;2022-10-26T04:55:25;13.70;99.90
16301;DHT22;8258;51.020;4.248;2022-10-26T04:57:52;13.70;99.90
16301;DHT22;8258;51.020;4.248;2022-10-26T05:00:19;13.80;99.90
16301;DHT22;8258;51.020;4.248;2022-10-26T05:02:46;13.90;99.90
16301;DHT22;8258;51.020;4.248;2022-10-26T05:05:14;14.00;99.90
16301;DHT22;8258;51.020;4.248;2022-10-26T05:07:41;14.10;99.90
16301;DHT22;8258;51.020;4.248;2022-10-26T05:10:09;14.30;99.90
16301;DHT22;8258;51.020;4.248;2022-10-26T05:12:37;14.50;99.90
16301;DHT22;8258;51.020;4.248;2022-10-26T05:15:05;14.60;99.90
16301;DHT22;8258;51.020;4.248;2022-10-26T05:17:32;14.80;99.90
16301;DHT22;8258;51.020;4.248;2022-10-26T05:19:59;14.90;99.90
16301;DHT22;8258;51.020;4.248;2022-10-26T05:22:31;14.90;99.90
16301;DHT22;8258;51.020;4.248;2022-10-26T05:24:58;14.90;99.90
16301;DHT22;8258;51.020;4.248;2022-10-26T05:27:25;15.00;99.90
16301;DHT22;8258;51.020;4.248;2022-10-26T05:29:52;15.00;99.90
16301;DHT22;8258;51.020;4.248;2022-10-26T05:32:19;15.10;99.90
16301;DHT22;8258;51.020;4.248;2022-10-26T05:34:46;15.10;99.90
16301;DHT22;8258;51.020;4.248;2022-10-26T05:37:13;15.10;99.90
16301;DHT22;8258;51.020;4.248;2022-10-26T05:39:41;15.20;99.90
16301;DHT22;8258;51.020;4.248;2022-10-26T05:42:08;15.20;99.90
16301;DHT22;8258;51.020;4.248;2022-10-26T05:44:35;15.20;99.90
16301;DHT22;8258;51.020;4.248;2022-10-26T05:47:02;15.20;99.90
16301;DHT22;8258;51.020;4.248;2022-10-26T05:49:29;15.20;99.90
16301;DHT22;8258;51.020;4.248;2022-10-26T05:51:56;15.20;99.90
16301;DHT22;8258;51.020;4.248;2022-10-26T05:54:23;15.20;99.90
16301;DHT22;8258;51.020;4.248;2022-10-26T05:56:52;15.10;99.90
16301;DHT22;8258;51.020;4.248;2022-10-26T05:59:19;15.00;99.90
16301;DHT22;8258;51.020;4.248;2022-10-26T06:01:55;15.00;99.90
16301;DHT22;8258;51.020;4.248;2022-10-26T06:04:30;14.90;99.90
16301;DHT22;8258;51.020;4.248;2022-10-26T06:07:01;14.90;99.90
16301;DHT22;8258;51.020;4.248;2022-10-26T06:09:28;14.90;99.90
16301;DHT22;8258;51.020;4.248;2022-10-26T06:11:57;14.90;99.90
16301;DHT22;8258;51.020;4.248;2022-10-26T06:14:26;14.90;99.90
16301;DHT22;8258;51.020;4.248;2022-10-26T06:17:02;14.90;99.90
16301;DHT22;8258;51.020;4.248;2022-10-26T06:19:42;15.00;99.90
16301;DHT22;8258;51.020;4.248;2022-10-26T06:22:22;14.90;99.90
16301;DHT22;8258;51.020;4.248;2022-10-26T06:24:59;15.00;99.90
16301;DHT22;8258;51.020;4.248;2022-10-26T06:27:37;15.10;99.90
16301;DHT22;8258;51.020;4.248;2022-10-26T06:30:08;15.10;99.90
16301;DHT22;8258;51.020;4.248;2022-10-26T06:32:37;15.10;99.90
16301;DHT22;8258;51.020;4.248;2022-10-26T06:35:14;15.00;99.90
16301;DHT22;8258;51.020;4.248;2022-10-26T06:37:44;14.90;99.90
16301;DHT22;8258;51.020;4.248;2022-10-26T06:40:13;14.90;99.90
16301;DHT22;8258;51.020;4.248;2022-10-26T06:42:43;14.80;99.90
16301;DHT22;8258;51.020;4.248;2022-10-26T06:45:11;14.70;99.90
16301;DHT22;8258;51.020;4.248;2022-10-26T06:47:43;14.70;99.90
16301;DHT22;8258;51.020;4.248;2022-10-26T06:50:24;14.80;99.90
16301;DHT22;8258;51.020;4.248;2022-10-26T06:52:57;14.80;99.90
16301;DHT22;8258;51.020;4.248;2022-10-26T06:55:29;15.00;99.90
16301;DHT22;8258;51.020;4.248;2022-10-26T06:58:03;15.00;99.90
16301;DHT22;8258;51.020;4.248;2022-10-26T07:00:31;15.00;99.90
16301;DHT22;8258;51.020;4.248;2022-10-26T07:02:59;15.00;99.90
16301;DHT22;8258;51.020;4.248;2022-10-26T07:05:26;15.10;99.90
16301;DHT22;8258;51.020;4.248;2022-10-26T07:07:52;15.10;99.90
16301;DHT22;8258;51.020;4.248;2022-10-26T07:10:19;15.20;99.90
16301;DHT22;8258;51.020;4.248;2022-10-26T07:12:46;15.20;99.90
16301;DHT22;8258;51.020;4.248;2022-10-26T07:15:15;15.20;99.90
16301;DHT22;8258;51.020;4.248;2022-10-26T07:17:43;15.30;99.90
16301;DHT22;8258;51.020;4.248;2022-10-26T07:20:11;15.30;99.90
16301;DHT22;8258;51.020;4.248;2022-10-26T07:22:38;15.30;99.90
16301;DHT22;8258;51.020;4.248;2022-10-26T07:25:06;15.30;99.90
16301;DHT22;8258;51.020;4.248;2022-10-26T07:27:33;15.70;99.90
16301;DHT22;8258;51.020;4.248;2022-10-26T07:29:59;16.40;99.90
16301;DHT22;8258;51.020;4.248;2022-10-26T07:32:28;17.20;99.90
16301;DHT22;8258;51.020;4.248;2022-10-26T07:34:55;17.70;99.90
16301;DHT22;8258;51.020;4.248;2022-10-26T07:37:22;18.30;99.90
16301;DHT22;8258;51.020;4.248;2022-10-26T07:39:48;18.70;99.90
16301;DHT22;8258;51.020;4.248;2022-10-26T07:42:15;18.90;99.90
16301;DHT22;8258;51.020;4.248;2022-10-26T07:44:42;19.00;99.90
16301;DHT22;8258;51.020;4.248;2022-10-26T07:47:09;19.20;99.90
16301;DHT22;8258;51.020;4.248;2022-10-26T07:49:37;19.30;99.90
16301;DHT22;8258;51.020;4.248;2022-10-26T07:52:04;19.30;99.90
16301;DHT22;8258;51.020;4.248;2022-10-26T07:54:32;19.50;99.90
16301;DHT22;8258;51.020;4.248;2022-10-26T07:56:59;19.60;99.90
16301;DHT22;8258;51.020;4.248;2022-10-26T07:59:26;19.90;99.90
16301;DHT22;8258;51.020;4.248;2022-10-26T08:01:53;20.00;99.90
16301;DHT22;8258;51.020;4.248;2022-10-26T08:04:20;20.10;99.90
16301;DHT22;8258;51.020;4.248;2022-10-26T08:06:48;20.50;99.90
16301;DHT22;8258;51.020;4.248;2022-10-26T08:09:15;20.20;99.90
16301;DHT22;8258;51.020;4.248;2022-10-26T08:11:42;20.00;99.90
16301;DHT22;8258;51.020;4.248;2022-10-26T08:14:09;19.90;99.90
16301;DHT22;8258;51.020;4.248;2022-10-26T08:16:36;20.10;99.90
16301;DHT22;8258;51.020;4.248;2022-10-26T08:19:05;20.70;99.90
16301;DHT22;8258;51.020;4.248;2022-10-26T08:21:31;20.90;99.90
16301;DHT22;8258;51.020;4.248;2022-10-26T08:24:00;21.30;99.90
16301;DHT22;8258;51.020;4.248;2022-10-26T08:26:26;20.90;99.90
16301;DHT22;8258;51.020;4.248;2022-10-26T08:28:53;20.80;99.90
16301;DHT22;8258;51.020;4.248;2022-10-26T08:31:20;20.40;99.90
16301;DHT22;8258;51.020;4.248;2022-10-26T08:33:47;20.80;99.90
16301;DHT22;8258;51.020;4.248;2022-10-26T08:36:22;21.00;99.90
16301;DHT22;8258;51.020;4.248;2022-10-26T08:38:50;21.40;99.90
16301;DHT22;8258;51.020;4.248;2022-10-26T08:41:21;21.40;99.90
16301;DHT22;8258;51.020;4.248;2022-10-26T08:43:52;21.90;99.90
16301;DHT22;8258;51.020;4.248;2022-10-26T08:46:26;22.00;99.90
16301;DHT22;8258;51.020;4.248;2022-10-26T08:48:57;22.10;99.90
16301;DHT22;8258;51.020;4.248;2022-10-26T08:51:29;22.30;99.90
16301;DHT22;8258;51.020;4.248;2022-10-26T08:54:02;22.50;99.90
16301;DHT22;8258;51.020;4.248;2022-10-26T08:56:38;22.90;99.90
16301;DHT22;8258;51.020;4.248;2022-10-26T08:59:11;22.70;99.90
16301;DHT22;8258;51.020;4.248;2022-10-26T09:01:41;22.20;99.90
16301;DHT22;8258;51.020;4.248;2022-10-26T09:04:11;21.30;99.90
16301;DHT22;8258;51.020;4.248;2022-10-26T09:06:46;21.50;99.90
16301;DHT22;8258;51.020;4.248;2022-10-26T09:09:18;21.50;99.90
16301;DHT22;8258;51.020;4.248;2022-10-26T09:11:55;21.60;99.90
16301;DHT22;8258;51.020;4.248;2022-10-26T09:14:34;22.10;99.90
16301;DHT22;8258;51.020;4.248;2022-10-26T09:17:10;22.40;99.90
16301;DHT22;8258;51.020;4.248;2022-10-26T09:22:44;22.60;99.90
16301;DHT22;8258;51.020;4.248;2022-10-26T09:25:17;22.90;99.90
16301;DHT22;8258;51.020;4.248;2022-10-26T09:27:49;23.40;99.90
16301;DHT22;8258;51.020;4.248;2022-10-26T09:30:19;23.40;99.90
16301;DHT22;8258;51.020;4.248;2022-10-26T09:32:47;24.00;99.90
16301;DHT22;8258;51.020;4.248;2022-10-26T09:35:18;24.30;99.90
16301;DHT22;8258;51.020;4.248;2022-10-26T09:37:48;24.20;99.90
16301;DHT22;8258;51.020;4.248;2022-10-26T09:40:21;24.20;99.90
16301;DHT22;8258;51.020;4.248;2022-10-26T09:42:54;24.60;99.90
16301;DHT22;8258;51.020;4.248;2022-10-26T09:45:27;24.90;99.90
16301;DHT22;8258;51.020;4.248;2022-10-26T09:47:59;24.70;99.90
16301;DHT22;8258;51.020;4.248;2022-10-26T09:50:29;25.60;99.90
16301;DHT22;8258;51.020;4.248;2022-10-26T09:52:58;26.20;99.90
16301;DHT22;8258;51.020;4.248;2022-10-26T09:55:25;24.60;99.90
16301;DHT22;8258;51.020;4.248;2022-10-26T09:57:58;24.00;99.90
16301;DHT22;8258;51.020;4.248;2022-10-26T10:00:27;24.10;99.90
16301;DHT22;8258;51.020;4.248;2022-10-26T10:02:55;24.60;99.90
16301;DHT22;8258;51.020;4.248;2022-10-26T10:05:24;24.70;99.90
16301;DHT22;8258;51.020;4.248;2022-10-26T10:08:17;24.90;99.90
16301;DHT22;8258;51.020;4.248;2022-10-26T10:10:59;25.70;99.90
16301;DHT22;8258;51.020;4.248;2022-10-26T10:13:30;26.00;99.90
16301;DHT22;8258;51.020;4.248;2022-10-26T10:16:04;25.70;99.90
16301;DHT22;8258;51.020;4.248;2022-10-26T10:18:32;26.00;99.90
16301;DHT22;8258;51.020;4.248;2022-10-26T10:21:00;25.70;99.90
16301;DHT22;8258;51.020;4.248;2022-10-26T10:23:29;25.70;99.90
16301;DHT22;8258;51.020;4.248;2022-10-26T10:26:03;25.70;99.90
16301;DHT22;8258;51.020;4.248;2022-10-26T10:28:32;25.00;99.90
16301;DHT22;8258;51.020;4.248;2022-10-26T10:31:00;25.20;99.90
16301;DHT22;8258;51.020;4.248;2022-10-26T10:33:36;25.70;99.90
16301;DHT22;8258;51.020;4.248;2022-10-26T10:36:07;26.30;99.90
16301;DHT22;8258;51.020;4.248;2022-10-26T10:38:43;27.00;99.90
16301;DHT22;8258;51.020;4.248;2022-10-26T10:41:19;27.60;99.90
16301;DHT22;8258;51.020;4.248;2022-10-26T10:43:51;27.00;99.90
16301;DHT22;8258;51.020;4.248;2022-10-26T10:46:23;27.10;99.90
16301;DHT22;8258;51.020;4.248;2022-10-26T10:48:54;26.10;99.90
16301;DHT22;8258;51.020;4.248;2022-10-26T10:51:23;26.00;99.90
16301;DHT22;8258;51.020;4.248;2022-10-26T10:53:52;25.00;99.90
16301;DHT22;8258;51.020;4.248;2022-10-26T10:56:37;24.80;99.90
16301;DHT22;8258;51.020;4.248;2022-10-26T10:59:29;24.20;99.90
16301;DHT22;8258;51.020;4.248;2022-10-26T11:02:13;24.50;99.90
16301;DHT22;8258;51.020;4.248;2022-10-26T11:04:58;25.10;99.90
16301;DHT22;8258;51.020;4.248;2022-10-26T11:07:41;25.80;99.90
16301;DHT22;8258;51.020;4.248;2022-10-26T11:10:14;26.20;99.90
16301;DHT22;8258;51.020;4.248;2022-10-26T11:12:46;25.40;99.90
16301;DHT22;8258;51.020;4.248;2022-10-26T11:15:19;25.20;99.90
16301;DHT22;8258;51.020;4.248;2022-10-26T11:17:52;25.50;99.90
16301;DHT22;8258;51.020;4.248;2022-10-26T11:20:24;26.00;99.90
16301;DHT22;8258;51.020;4.248;2022-10-26T11:23:01;27.00;99.90
16301;DHT22;8258;51.020;4.248;2022-10-26T11:25:32;27.20;99.90
16301;DHT22;8258;51.020;4.248;2022-10-26T11:28:04;26.90;99.90
16301;DHT22;8258;51.020;4.248;2022-10-26T11:30:42;26.90;99.90
16301;DHT22;8258;51.020;4.248;2022-10-26T11:33:15;26.30;99.90
16301;DHT22;8258;51.020;4.248;2022-10-26T11:35:45;26.70;99.90
16301;DHT22;8258;51.020;4.248;2022-10-26T11:38:20;26.70;99.90
16301;DHT22;8258;51.020;4.248;2022-10-26T11:40:51;26.60;99.90
16301;DHT22;8258;51.020;4.248;2022-10-26T11:43:24;26.10;99.90
16301;DHT22;8258;51.020;4.248;2022-10-26T11:46:03;26.40;99.90
16301;DHT22;8258;51.020;4.248;2022-10-26T11:48:34;26.70;99.90
16301;DHT22;8258;51.020;4.248;2022-10-26T11:51:04;26.40;99.90
16301;DHT22;8258;51.020;4.248;2022-10-26T11:53:38;26.00;99.90
16301;DHT22;8258;51.020;4.248;2022-10-26T11:56:13;25.80;99.90
16301;DHT22;8258;51.020;4.248;2022-10-26T11:58:41;26.10;99.90
16301;DHT22;8258;51.020;4.248;2022-10-26T12:01:12;25.80;99.90
16301;DHT22;8258;51.020;4.248;2022-10-26T12:03:43;25.40;99.90
16301;DHT22;8258;51.020;4.248;2022-10-26T12:06:14;25.80;99.90
16301;DHT22;8258;51.020;4.248;2022-10-26T12:08:46;25.90;99.90
16301;DHT22;8258;51.020;4.248;2022-10-26T12:11:25;26.10;99.90
16301;DHT22;8258;51.020;4.248;2022-10-26T12:13:56;26.10;99.90
16301;DHT22;8258;51.020;4.248;2022-10-26T12:16:34;26.80;99.90
16301;DHT22;8258;51.020;4.248;2022-10-26T12:19:05;27.00;99.90
16301;DHT22;8258;51.020;4.248;2022-10-26T12:21:38;27.30;99.90
16301;DHT22;8258;51.020;4.248;2022-10-26T12:24:23;26.10;99.90
16301;DHT22;8258;51.020;4.248;2022-10-26T12:26:52;25.70;99.90
16301;DHT22;8258;51.020;4.248;2022-10-26T12:29:44;26.50;99.90
16301;DHT22;8258;51.020;4.248;2022-10-26T12:35:39;26.20;99.90
16301;DHT22;8258;51.020;4.248;2022-10-26T12:41:21;26.50;99.90
16301;DHT22;8258;51.020;4.248;2022-10-26T12:43:51;26.20;99.90
16301;DHT22;8258;51.020;4.248;2022-10-26T12:46:42;25.40;99.90
16301;DHT22;8258;51.020;4.248;2022-10-26T12:52:44;25.20;99.90
16301;DHT22;8258;51.020;4.248;2022-10-26T12:55:41;25.50;99.90
16301;DHT22;8258;51.020;4.248;2022-10-26T12:58:40;26.00;99.90
16301;DHT22;8258;51.020;4.248;2022-10-26T13:04:35;26.30;99.90
16301;DHT22;8258;51.020;4.248;2022-10-26T13:07:17;26.30;99.90
16301;DHT22;8258;51.020;4.248;2022-10-26T13:09:55;26.10;99.90
16301;DHT22;8258;51.020;4.248;2022-10-26T13:12:24;26.50;99.90
16301;DHT22;8258;51.020;4.248;2022-10-26T13:14:58;27.60;99.90
16301;DHT22;8258;51.020;4.248;2022-10-26T13:17:27;27.40;99.90
16301;DHT22;8258;51.020;4.248;2022-10-26T13:19:55;26.60;99.90
16301;DHT22;8258;51.020;4.248;2022-10-26T13:22:23;26.90;99.90
16301;DHT22;8258;51.020;4.248;2022-10-26T13:24:53;27.40;99.90
16301;DHT22;8258;51.020;4.248;2022-10-26T13:27:40;26.70;99.90
16301;DHT22;8258;51.020;4.248;2022-10-26T13:30:34;26.60;99.90
16301;DHT22;8258;51.020;4.248;2022-10-26T13:33:10;26.80;99.90
16301;DHT22;8258;51.020;4.248;2022-10-26T13:35:39;26.00;99.90
16301;DHT22;8258;51.020;4.248;2022-10-26T13:38:09;25.30;99.90
16301;DHT22;8258;51.020;4.248;2022-10-26T13:40:38;24.70;99.90
16301;DHT22;8258;51.020;4.248;2022-10-26T13:43:12;24.90;99.90
16301;DHT22;8258;51.020;4.248;2022-10-26T13:45:48;24.20;99.90
16301;DHT22;8258;51.020;4.248;2022-10-26T13:48:19;23.40;99.90
16301;DHT22;8258;51.020;4.248;2022-10-26T13:50:51;23.20;99.90
16301;DHT22;8258;51.020;4.248;2022-10-26T13:53:21;22.80;99.90
16301;DHT22;8258;51.020;4.248;2022-10-26T13:55:53;22.50;99.90
16301;DHT22;8258;51.020;4.248;2022-10-26T13:58:25;22.40;99.90
16301;DHT22;8258;51.020;4.248;2022-10-26T14:01:03;22.30;99.90
16301;DHT22;8258;51.020;4.248;2022-10-26T14:03:30;22.20;99.90
16301;DHT22;8258;51.020;4.248;2022-10-26T14:05:59;22.30;99.90
16301;DHT22;8258;51.020;4.248;2022-10-26T14:08:26;22.30;99.90
16301;DHT22;8258;51.020;4.248;2022-10-26T14:10:56;22.50;99.90
16301;DHT22;8258;51.020;4.248;2022-10-26T14:13:24;23.30;99.90
16301;DHT22;8258;51.020;4.248;2022-10-26T14:15:54;23.30;99.90
16301;DHT22;8258;51.020;4.248;2022-10-26T14:18:23;23.00;99.90
16301;DHT22;8258;51.020;4.248;2022-10-26T14:20:55;22.50;99.90
16301;DHT22;8258;51.020;4.248;2022-10-26T14:23:28;22.10;99.90
16301;DHT22;8258;51.020;4.248;2022-10-26T14:25:59;21.80;99.90
16301;DHT22;8258;51.020;4.248;2022-10-26T14:28:28;21.60;99.90
16301;DHT22;8258;51.020;4.248;2022-10-26T14:31:10;21.60;99.90
16301;DHT22;8258;51.020;4.248;2022-10-26T14:33:38;21.50;99.90
16301;DHT22;8258;51.020;4.248;2022-10-26T14:36:05;21.40;99.90
16301;DHT22;8258;51.020;4.248;2022-10-26T14:38:38;21.40;99.90
16301;DHT22;8258;51.020;4.248;2022-10-26T14:41:09;21.50;99.90
16301;DHT22;8258;51.020;4.248;2022-10-26T14:43:37;21.60;99.90
16301;DHT22;8258;51.020;4.248;2022-10-26T14:46:05;21.90;99.90
16301;DHT22;8258;51.020;4.248;2022-10-26T14:48:33;22.00;99.90
16301;DHT22;8258;51.020;4.248;2022-10-26T14:51:02;22.40;99.90
16301;DHT22;8258;51.020;4.248;2022-10-26T14:53:36;23.70;99.90
16301;DHT22;8258;51.020;4.248;2022-10-26T14:56:15;24.90;99.90
16301;DHT22;8258;51.020;4.248;2022-10-26T14:58:44;25.80;99.90
16301;DHT22;8258;51.020;4.248;2022-10-26T15:01:23;25.80;99.90
16301;DHT22;8258;51.020;4.248;2022-10-26T15:03:53;25.30;99.90
16301;DHT22;8258;51.020;4.248;2022-10-26T15:06:32;25.20;99.90
16301;DHT22;8258;51.020;4.248;2022-10-26T15:09:00;25.00;99.90
16301;DHT22;8258;51.020;4.248;2022-10-26T15:11:31;24.20;99.90
16301;DHT22;8258;51.020;4.248;2022-10-26T15:14:00;23.60;99.90
16301;DHT22;8258;51.020;4.248;2022-10-26T15:16:29;23.50;99.90
16301;DHT22;8258;51.020;4.248;2022-10-26T15:18:58;23.00;99.90
16301;DHT22;8258;51.020;4.248;2022-10-26T15:21:29;22.90;99.90
16301;DHT22;8258;51.020;4.248;2022-10-26T15:23:58;22.80;99.90
16301;DHT22;8258;51.020;4.248;2022-10-26T15:26:25;22.90;99.90
16301;DHT22;8258;51.020;4.248;2022-10-26T15:28:53;23.50;99.90
16301;DHT22;8258;51.020;4.248;2022-10-26T15:31:31;23.60;99.90
16301;DHT22;8258;51.020;4.248;2022-10-26T15:34:12;23.60;99.90
16301;DHT22;8258;51.020;4.248;2022-10-26T15:36:41;22.70;99.90
16301;DHT22;8258;51.020;4.248;2022-10-26T15:39:08;22.10;99.90
16301;DHT22;8258;51.020;4.248;2022-10-26T15:41:37;21.60;99.90
16301;DHT22;8258;51.020;4.248;2022-10-26T15:44:09;21.30;99.90
16301;DHT22;8258;51.020;4.248;2022-10-26T15:46:39;21.10;99.90
16301;DHT22;8258;51.020;4.248;2022-10-26T15:49:07;20.90;99.90
16301;DHT22;8258;51.020;4.248;2022-10-26T15:51:39;20.70;99.90
16301;DHT22;8258;51.020;4.248;2022-10-26T15:54:07;20.60;99.90
16301;DHT22;8258;51.020;4.248;2022-10-26T15:56:35;20.50;99.90
16301;DHT22;8258;51.020;4.248;2022-10-26T15:59:07;20.40;99.90
16301;DHT22;8258;51.020;4.248;2022-10-26T16:01:38;20.40;99.90
16301;DHT22;8258;51.020;4.248;2022-10-26T16:04:05;20.40;99.90
16301;DHT22;8258;51.020;4.248;2022-10-26T16:06:33;20.50;99.90
16301;DHT22;8258;51.020;4.248;2022-10-26T16:09:02;20.40;99.90
16301;DHT22;8258;51.020;4.248;2022-10-26T16:11:29;20.50;99.90
16301;DHT22;8258;51.020;4.248;2022-10-26T16:13:56;20.50;99.90
16301;DHT22;8258;51.020;4.248;2022-10-26T16:16:23;20.40;99.90
16301;DHT22;8258;51.020;4.248;2022-10-26T16:18:53;20.40;99.90
16301;DHT22;8258;51.020;4.248;2022-10-26T16:21:21;20.30;99.90
16301;DHT22;8258;51.020;4.248;2022-10-26T16:23:50;20.20;99.90
16301;DHT22;8258;51.020;4.248;2022-10-26T16:26:17;20.20;99.90
16301;DHT22;8258;51.020;4.248;2022-10-26T16:28:44;20.10;99.90
16301;DHT22;8258;51.020;4.248;2022-10-26T16:31:13;20.10;99.90